Terminal Aerodrome Forecast
Issued by NWS

Home | Current Version | Previous Version | Text Only | Print | Product List | Glossary On
Versions: 1 2 3 4 5 6 7 8 9 10 11 12 13
000
FTUS42 TJSJ 301700 RRA
TAFIST
TAF
TIST 301739Z 3018/0118 14011KT P6SM FEW025
     FM302330 08003KT P6SM FEW022
     FM011330 12011KT P6SM SCT030=

USA.gov is the U.S. government's official web portal to all federal, state and local government web resources and services.